sensor_id;sensor_type;location;lat;lon;timestamp;P1;durP1;ratioP1;P2;durP2;ratioP2
22234;SDS011;11286;45.596;5.284;2023-04-25T00:00:18;18.33;;;10.75;;
22234;SDS011;11286;45.596;5.284;2023-04-25T00:02:44;18.92;;;9.98;;
22234;SDS011;11286;45.596;5.284;2023-04-25T00:05:11;16.17;;;9.85;;
22234;SDS011;11286;45.596;5.284;2023-04-25T00:07:37;16.08;;;9.15;;
22234;SDS011;11286;45.596;5.284;2023-04-25T00:10:03;15.50;;;9.13;;
22234;SDS011;11286;45.596;5.284;2023-04-25T00:12:29;16.08;;;9.02;;
22234;SDS011;11286;45.596;5.284;2023-04-25T00:14:55;14.13;;;9.32;;
22234;SDS011;11286;45.596;5.284;2023-04-25T00:17:24;18.90;;;10.38;;
22234;SDS011;11286;45.596;5.284;2023-04-25T00:19:51;18.63;;;11.05;;
22234;SDS011;11286;45.596;5.284;2023-04-25T00:22:17;17.48;;;10.57;;
22234;SDS011;11286;45.596;5.284;2023-04-25T00:24:43;18.10;;;11.15;;
22234;SDS011;11286;45.596;5.284;2023-04-25T00:27:09;19.60;;;11.98;;
22234;SDS011;11286;45.596;5.284;2023-04-25T00:29:34;17.08;;;9.18;;
22234;SDS011;11286;45.596;5.284;2023-04-25T00:32:01;19.08;;;10.23;;
22234;SDS011;11286;45.596;5.284;2023-04-25T00:34:26;15.98;;;9.40;;
22234;SDS011;11286;45.596;5.284;2023-04-25T00:36:52;9.95;;;6.55;;
22234;SDS011;11286;45.596;5.284;2023-04-25T00:39:18;10.18;;;6.32;;
22234;SDS011;11286;45.596;5.284;2023-04-25T00:41:44;11.30;;;6.82;;
22234;SDS011;11286;45.596;5.284;2023-04-25T00:44:10;10.63;;;6.47;;
22234;SDS011;11286;45.596;5.284;2023-04-25T00:46:38;9.70;;;6.85;;
22234;SDS011;11286;45.596;5.284;2023-04-25T00:49:04;8.93;;;6.90;;
22234;SDS011;11286;45.596;5.284;2023-04-25T00:51:30;12.18;;;7.38;;
22234;SDS011;11286;45.596;5.284;2023-04-25T00:53:57;10.38;;;7.30;;
22234;SDS011;11286;45.596;5.284;2023-04-25T00:56:23;10.10;;;7.00;;
22234;SDS011;11286;45.596;5.284;2023-04-25T00:58:50;11.38;;;7.47;;
22234;SDS011;11286;45.596;5.284;2023-04-25T01:01:21;10.30;;;7.38;;
22234;SDS011;11286;45.596;5.284;2023-04-25T01:03:47;12.07;;;7.30;;
22234;SDS011;11286;45.596;5.284;2023-04-25T01:06:14;9.82;;;7.63;;
22234;SDS011;11286;45.596;5.284;2023-04-25T01:08:41;11.25;;;7.50;;
22234;SDS011;11286;45.596;5.284;2023-04-25T01:11:06;9.65;;;7.63;;
22234;SDS011;11286;45.596;5.284;2023-04-25T01:13:32;12.35;;;7.80;;
22234;SDS011;11286;45.596;5.284;2023-04-25T01:15:59;10.23;;;7.63;;
22234;SDS011;11286;45.596;5.284;2023-04-25T01:18:26;13.98;;;7.57;;
22234;SDS011;11286;45.596;5.284;2023-04-25T01:20:52;12.52;;;7.80;;
22234;SDS011;11286;45.596;5.284;2023-04-25T01:23:18;13.73;;;8.10;;
22234;SDS011;11286;45.596;5.284;2023-04-25T01:25:45;13.38;;;8.27;;
22234;SDS011;11286;45.596;5.284;2023-04-25T01:28:12;12.18;;;8.07;;
22234;SDS011;11286;45.596;5.284;2023-04-25T01:30:38;14.32;;;8.50;;
22234;SDS011;11286;45.596;5.284;2023-04-25T01:33:05;13.73;;;7.82;;
22234;SDS011;11286;45.596;5.284;2023-04-25T01:35:33;10.70;;;8.18;;
22234;SDS011;11286;45.596;5.284;2023-04-25T01:38:00;12.38;;;8.00;;
22234;SDS011;11286;45.596;5.284;2023-04-25T01:40:26;14.38;;;8.10;;
22234;SDS011;11286;45.596;5.284;2023-04-25T01:42:52;11.38;;;7.47;;
22234;SDS011;11286;45.596;5.284;2023-04-25T01:45:18;13.63;;;8.50;;
22234;SDS011;11286;45.596;5.284;2023-04-25T01:47:44;11.63;;;7.72;;
22234;SDS011;11286;45.596;5.284;2023-04-25T01:50:14;11.45;;;7.32;;
22234;SDS011;11286;45.596;5.284;2023-04-25T01:52:40;13.65;;;7.63;;
22234;SDS011;11286;45.596;5.284;2023-04-25T01:55:06;10.32;;;7.43;;
22234;SDS011;11286;45.596;5.284;2023-04-25T01:57:32;13.27;;;8.10;;
22234;SDS011;11286;45.596;5.284;2023-04-25T01:59:59;12.32;;;8.18;;
22234;SDS011;11286;45.596;5.284;2023-04-25T02:02:26;12.25;;;6.80;;
22234;SDS011;11286;45.596;5.284;2023-04-25T02:04:52;10.18;;;6.35;;
22234;SDS011;11286;45.596;5.284;2023-04-25T02:07:19;7.82;;;5.30;;
22234;SDS011;11286;45.596;5.284;2023-04-25T02:09:45;6.47;;;4.72;;
22234;SDS011;11286;45.596;5.284;2023-04-25T02:12:10;9.32;;;4.80;;
22234;SDS011;11286;45.596;5.284;2023-04-25T02:14:36;6.60;;;4.57;;
22234;SDS011;11286;45.596;5.284;2023-04-25T02:17:02;6.35;;;4.40;;
22234;SDS011;11286;45.596;5.284;2023-04-25T02:19:27;9.63;;;4.55;;
22234;SDS011;11286;45.596;5.284;2023-04-25T02:21:53;9.70;;;4.65;;
22234;SDS011;11286;45.596;5.284;2023-04-25T02:24:19;7.30;;;4.50;;
22234;SDS011;11286;45.596;5.284;2023-04-25T02:26:45;8.38;;;5.05;;
22234;SDS011;11286;45.596;5.284;2023-04-25T02:29:11;9.68;;;4.75;;
22234;SDS011;11286;45.596;5.284;2023-04-25T02:31:37;7.72;;;4.90;;
22234;SDS011;11286;45.596;5.284;2023-04-25T02:34:03;7.30;;;4.90;;
22234;SDS011;11286;45.596;5.284;2023-04-25T02:36:29;7.30;;;5.10;;
22234;SDS011;11286;45.596;5.284;2023-04-25T02:38:59;8.00;;;5.40;;
22234;SDS011;11286;45.596;5.284;2023-04-25T02:41:25;8.80;;;5.00;;
22234;SDS011;11286;45.596;5.284;2023-04-25T02:43:51;7.95;;;5.22;;
22234;SDS011;11286;45.596;5.284;2023-04-25T02:46:16;9.25;;;5.68;;
22234;SDS011;11286;45.596;5.284;2023-04-25T02:48:42;8.20;;;5.70;;
22234;SDS011;11286;45.596;5.284;2023-04-25T02:51:08;7.38;;;5.32;;
22234;SDS011;11286;45.596;5.284;2023-04-25T02:53:34;6.78;;;5.10;;
22234;SDS011;11286;45.596;5.284;2023-04-25T02:56:00;8.68;;;5.10;;
22234;SDS011;11286;45.596;5.284;2023-04-25T02:58:25;10.07;;;5.60;;
22234;SDS011;11286;45.596;5.284;2023-04-25T03:00:51;8.73;;;5.25;;
22234;SDS011;11286;45.596;5.284;2023-04-25T03:03:17;9.75;;;5.30;;
22234;SDS011;11286;45.596;5.284;2023-04-25T03:05:43;8.25;;;5.72;;
22234;SDS011;11286;45.596;5.284;2023-04-25T03:08:09;8.73;;;5.63;;
22234;SDS011;11286;45.596;5.284;2023-04-25T03:10:35;8.40;;;5.25;;
22234;SDS011;11286;45.596;5.284;2023-04-25T03:13:00;8.60;;;5.07;;
22234;SDS011;11286;45.596;5.284;2023-04-25T03:15:26;6.82;;;5.25;;
22234;SDS011;11286;45.596;5.284;2023-04-25T03:17:52;7.07;;;5.45;;
22234;SDS011;11286;45.596;5.284;2023-04-25T03:20:17;7.22;;;5.68;;
22234;SDS011;11286;45.596;5.284;2023-04-25T03:22:43;9.15;;;5.60;;
22234;SDS011;11286;45.596;5.284;2023-04-25T03:25:09;8.13;;;5.65;;
22234;SDS011;11286;45.596;5.284;2023-04-25T03:27:35;8.88;;;5.47;;
22234;SDS011;11286;45.596;5.284;2023-04-25T03:30:00;6.53;;;5.13;;
22234;SDS011;11286;45.596;5.284;2023-04-25T03:32:26;9.15;;;5.97;;
22234;SDS011;11286;45.596;5.284;2023-04-25T03:34:52;8.52;;;5.80;;
22234;SDS011;11286;45.596;5.284;2023-04-25T03:37:17;7.93;;;5.60;;
22234;SDS011;11286;45.596;5.284;2023-04-25T03:39:43;5.85;;;5.20;;
22234;SDS011;11286;45.596;5.284;2023-04-25T03:42:09;8.45;;;5.40;;
22234;SDS011;11286;45.596;5.284;2023-04-25T03:44:34;10.80;;;6.10;;
22234;SDS011;11286;45.596;5.284;2023-04-25T03:47:00;7.38;;;5.28;;
22234;SDS011;11286;45.596;5.284;2023-04-25T03:49:26;7.82;;;5.40;;
22234;SDS011;11286;45.596;5.284;2023-04-25T03:51:51;6.90;;;5.10;;
22234;SDS011;11286;45.596;5.284;2023-04-25T03:54:17;6.72;;;5.32;;
22234;SDS011;11286;45.596;5.284;2023-04-25T03:56:43;8.27;;;4.78;;
22234;SDS011;11286;45.596;5.284;2023-04-25T03:59:08;6.88;;;4.82;;
22234;SDS011;11286;45.596;5.284;2023-04-25T04:01:34;6.25;;;4.60;;
22234;SDS011;11286;45.596;5.284;2023-04-25T04:04:00;7.63;;;5.00;;
22234;SDS011;11286;45.596;5.284;2023-04-25T04:06:26;6.45;;;4.85;;
22234;SDS011;11286;45.596;5.284;2023-04-25T04:08:51;7.75;;;5.00;;
22234;SDS011;11286;45.596;5.284;2023-04-25T04:11:17;6.68;;;4.82;;
22234;SDS011;11286;45.596;5.284;2023-04-25T04:13:43;5.63;;;4.53;;
22234;SDS011;11286;45.596;5.284;2023-04-25T04:16:08;7.35;;;5.35;;
22234;SDS011;11286;45.596;5.284;2023-04-25T04:18:34;8.50;;;5.43;;
22234;SDS011;11286;45.596;5.284;2023-04-25T04:21:00;8.00;;;4.80;;
22234;SDS011;11286;45.596;5.284;2023-04-25T04:23:26;7.00;;;6.05;;
22234;SDS011;11286;45.596;5.284;2023-04-25T04:25:53;7.63;;;5.63;;
22234;SDS011;11286;45.596;5.284;2023-04-25T04:28:19;11.68;;;5.55;;
22234;SDS011;11286;45.596;5.284;2023-04-25T04:30:45;8.02;;;5.38;;
22234;SDS011;11286;45.596;5.284;2023-04-25T04:33:11;7.90;;;5.30;;
22234;SDS011;11286;45.596;5.284;2023-04-25T04:35:37;8.85;;;5.63;;
22234;SDS011;11286;45.596;5.284;2023-04-25T04:38:03;13.20;;;5.80;;
22234;SDS011;11286;45.596;5.284;2023-04-25T04:40:28;7.53;;;5.07;;
22234;SDS011;11286;45.596;5.284;2023-04-25T04:42:56;8.90;;;5.15;;
22234;SDS011;11286;45.596;5.284;2023-04-25T04:45:22;9.27;;;5.03;;
22234;SDS011;11286;45.596;5.284;2023-04-25T04:47:48;9.02;;;5.70;;
22234;SDS011;11286;45.596;5.284;2023-04-25T04:50:15;8.63;;;5.20;;
22234;SDS011;11286;45.596;5.284;2023-04-25T04:52:41;10.05;;;5.80;;
22234;SDS011;11286;45.596;5.284;2023-04-25T04:55:07;9.57;;;5.40;;
22234;SDS011;11286;45.596;5.284;2023-04-25T04:57:33;9.40;;;5.20;;
22234;SDS011;11286;45.596;5.284;2023-04-25T04:59:59;8.18;;;5.30;;
22234;SDS011;11286;45.596;5.284;2023-04-25T05:02:25;8.35;;;5.05;;
22234;SDS011;11286;45.596;5.284;2023-04-25T05:04:51;10.10;;;5.38;;
22234;SDS011;11286;45.596;5.284;2023-04-25T05:07:18;9.00;;;5.75;;
22234;SDS011;11286;45.596;5.284;2023-04-25T05:09:44;7.63;;;5.07;;
22234;SDS011;11286;45.596;5.284;2023-04-25T05:12:10;10.32;;;5.28;;
22234;SDS011;11286;45.596;5.284;2023-04-25T05:14:36;11.15;;;5.95;;
22234;SDS011;11286;45.596;5.284;2023-04-25T05:17:01;8.05;;;5.13;;
22234;SDS011;11286;45.596;5.284;2023-04-25T05:19:29;9.52;;;5.50;;
22234;SDS011;11286;45.596;5.284;2023-04-25T05:21:55;7.53;;;5.32;;
22234;SDS011;11286;45.596;5.284;2023-04-25T05:24:21;8.13;;;4.85;;
22234;SDS011;11286;45.596;5.284;2023-04-25T05:26:46;7.88;;;5.40;;
22234;SDS011;11286;45.596;5.284;2023-04-25T05:29:12;8.68;;;5.35;;
22234;SDS011;11286;45.596;5.284;2023-04-25T05:31:38;11.95;;;5.22;;
22234;SDS011;11286;45.596;5.284;2023-04-25T05:34:03;11.02;;;5.70;;
22234;SDS011;11286;45.596;5.284;2023-04-25T05:36:29;9.27;;;5.20;;
22234;SDS011;11286;45.596;5.284;2023-04-25T05:38:55;7.70;;;5.40;;
22234;SDS011;11286;45.596;5.284;2023-04-25T05:41:21;8.40;;;4.90;;
22234;SDS011;11286;45.596;5.284;2023-04-25T05:43:47;8.05;;;5.13;;
22234;SDS011;11286;45.596;5.284;2023-04-25T05:46:14;9.27;;;5.13;;
22234;SDS011;11286;45.596;5.284;2023-04-25T05:48:42;9.10;;;5.10;;
22234;SDS011;11286;45.596;5.284;2023-04-25T05:51:08;7.53;;;4.65;;
22234;SDS011;11286;45.596;5.284;2023-04-25T05:53:33;8.88;;;5.22;;
22234;SDS011;11286;45.596;5.284;2023-04-25T05:56:00;7.97;;;5.15;;
22234;SDS011;11286;45.596;5.284;2023-04-25T05:58:26;8.77;;;5.35;;
22234;SDS011;11286;45.596;5.284;2023-04-25T06:00:52;10.13;;;4.45;;
22234;SDS011;11286;45.596;5.284;2023-04-25T06:03:17;8.95;;;4.97;;
22234;SDS011;11286;45.596;5.284;2023-04-25T06:05:43;10.93;;;4.88;;
22234;SDS011;11286;45.596;5.284;2023-04-25T06:08:09;9.02;;;4.78;;
22234;SDS011;11286;45.596;5.284;2023-04-25T06:10:35;8.20;;;4.70;;
22234;SDS011;11286;45.596;5.284;2023-04-25T06:13:02;9.70;;;5.50;;
22234;SDS011;11286;45.596;5.284;2023-04-25T06:15:27;7.85;;;5.40;;
22234;SDS011;11286;45.596;5.284;2023-04-25T06:17:53;8.95;;;5.35;;
22234;SDS011;11286;45.596;5.284;2023-04-25T06:20:19;12.45;;;5.30;;
22234;SDS011;11286;45.596;5.284;2023-04-25T06:22:48;6.97;;;5.00;;
22234;SDS011;11286;45.596;5.284;2023-04-25T06:25:14;8.15;;;5.20;;
22234;SDS011;11286;45.596;5.284;2023-04-25T06:27:40;11.27;;;5.50;;
22234;SDS011;11286;45.596;5.284;2023-04-25T06:30:06;10.45;;;5.30;;
22234;SDS011;11286;45.596;5.284;2023-04-25T06:32:32;11.80;;;5.75;;
22234;SDS011;11286;45.596;5.284;2023-04-25T06:34:59;11.75;;;6.15;;
22234;SDS011;11286;45.596;5.284;2023-04-25T06:37:25;8.05;;;5.47;;
22234;SDS011;11286;45.596;5.284;2023-04-25T06:39:51;11.18;;;5.57;;
22234;SDS011;11286;45.596;5.284;2023-04-25T06:42:16;12.10;;;6.07;;
22234;SDS011;11286;45.596;5.284;2023-04-25T06:44:42;10.35;;;5.68;;
22234;SDS011;11286;45.596;5.284;2023-04-25T06:47:08;8.68;;;5.53;;
22234;SDS011;11286;45.596;5.284;2023-04-25T06:49:33;8.82;;;6.15;;
22234;SDS011;11286;45.596;5.284;2023-04-25T06:51:59;8.38;;;5.90;;
22234;SDS011;11286;45.596;5.284;2023-04-25T06:54:25;9.15;;;5.63;;
22234;SDS011;11286;45.596;5.284;2023-04-25T06:56:52;12.45;;;5.90;;
22234;SDS011;11286;45.596;5.284;2023-04-25T06:59:18;10.73;;;5.93;;
22234;SDS011;11286;45.596;5.284;2023-04-25T07:01:44;9.07;;;5.78;;
22234;SDS011;11286;45.596;5.284;2023-04-25T07:04:09;9.70;;;6.10;;
22234;SDS011;11286;45.596;5.284;2023-04-25T07:06:35;10.20;;;6.05;;
22234;SDS011;11286;45.596;5.284;2023-04-25T07:09:03;10.82;;;5.88;;
22234;SDS011;11286;45.596;5.284;2023-04-25T07:11:30;10.73;;;5.68;;
22234;SDS011;11286;45.596;5.284;2023-04-25T07:13:55;8.57;;;5.65;;
22234;SDS011;11286;45.596;5.284;2023-04-25T07:16:21;9.27;;;5.45;;
22234;SDS011;11286;45.596;5.284;2023-04-25T07:18:47;9.07;;;5.45;;
22234;SDS011;11286;45.596;5.284;2023-04-25T07:21:12;9.43;;;5.57;;
22234;SDS011;11286;45.596;5.284;2023-04-25T07:23:38;8.95;;;5.72;;
22234;SDS011;11286;45.596;5.284;2023-04-25T07:26:05;8.63;;;5.13;;
22234;SDS011;11286;45.596;5.284;2023-04-25T07:28:31;9.30;;;6.30;;
22234;SDS011;11286;45.596;5.284;2023-04-25T07:30:57;11.25;;;7.75;;
22234;SDS011;11286;45.596;5.284;2023-04-25T07:33:23;12.70;;;6.20;;
22234;SDS011;11286;45.596;5.284;2023-04-25T07:35:48;9.40;;;5.70;;
22234;SDS011;11286;45.596;5.284;2023-04-25T07:38:15;9.38;;;5.28;;
22234;SDS011;11286;45.596;5.284;2023-04-25T07:40:40;10.05;;;5.80;;
22234;SDS011;11286;45.596;5.284;2023-04-25T07:43:06;9.80;;;5.57;;
22234;SDS011;11286;45.596;5.284;2023-04-25T07:45:32;9.00;;;6.03;;
22234;SDS011;11286;45.596;5.284;2023-04-25T07:47:58;10.68;;;6.10;;
22234;SDS011;11286;45.596;5.284;2023-04-25T07:50:23;10.25;;;6.03;;
22234;SDS011;11286;45.596;5.284;2023-04-25T07:52:49;8.90;;;5.60;;
22234;SDS011;11286;45.596;5.284;2023-04-25T07:55:15;9.80;;;5.97;;
22234;SDS011;11286;45.596;5.284;2023-04-25T07:57:41;12.18;;;5.80;;
22234;SDS011;11286;45.596;5.284;2023-04-25T08:00:07;9.60;;;5.22;;
22234;SDS011;11286;45.596;5.284;2023-04-25T08:02:34;6.85;;;5.25;;
22234;SDS011;11286;45.596;5.284;2023-04-25T08:05:01;9.65;;;5.15;;
22234;SDS011;11286;45.596;5.284;2023-04-25T08:07:27;9.25;;;4.82;;
22234;SDS011;11286;45.596;5.284;2023-04-25T08:09:53;8.07;;;5.43;;
22234;SDS011;11286;45.596;5.284;2023-04-25T08:12:19;9.23;;;5.47;;
22234;SDS011;11286;45.596;5.284;2023-04-25T08:14:45;8.63;;;5.43;;
22234;SDS011;11286;45.596;5.284;2023-04-25T08:17:10;8.25;;;5.07;;
22234;SDS011;11286;45.596;5.284;2023-04-25T08:19:36;6.50;;;5.43;;
22234;SDS011;11286;45.596;5.284;2023-04-25T08:22:02;8.55;;;4.60;;
22234;SDS011;11286;45.596;5.284;2023-04-25T08:24:28;7.43;;;5.15;;
22234;SDS011;11286;45.596;5.284;2023-04-25T08:26:53;8.48;;;4.90;;
22234;SDS011;11286;45.596;5.284;2023-04-25T08:29:19;7.30;;;4.65;;
22234;SDS011;11286;45.596;5.284;2023-04-25T08:31:45;7.50;;;4.25;;
22234;SDS011;11286;45.596;5.284;2023-04-25T08:34:11;5.95;;;4.05;;
22234;SDS011;11286;45.596;5.284;2023-04-25T08:36:36;7.50;;;4.63;;
22234;SDS011;11286;45.596;5.284;2023-04-25T08:39:02;6.75;;;4.30;;
22234;SDS011;11286;45.596;5.284;2023-04-25T08:41:28;5.30;;;4.10;;
22234;SDS011;11286;45.596;5.284;2023-04-25T08:43:54;5.45;;;4.57;;
22234;SDS011;11286;45.596;5.284;2023-04-25T08:46:21;6.10;;;4.30;;
22234;SDS011;11286;45.596;5.284;2023-04-25T08:48:48;8.32;;;4.78;;
22234;SDS011;11286;45.596;5.284;2023-04-25T08:51:22;7.93;;;4.82;;
22234;SDS011;11286;45.596;5.284;2023-04-25T08:53:50;7.70;;;4.40;;
22234;SDS011;11286;45.596;5.284;2023-04-25T08:56:17;10.65;;;4.60;;
22234;SDS011;11286;45.596;5.284;2023-04-25T08:58:43;5.90;;;4.55;;
22234;SDS011;11286;45.596;5.284;2023-04-25T09:01:11;7.88;;;4.35;;
22234;SDS011;11286;45.596;5.284;2023-04-25T09:03:36;6.72;;;3.95;;
22234;SDS011;11286;45.596;5.284;2023-04-25T09:06:03;5.38;;;3.97;;
22234;SDS011;11286;45.596;5.284;2023-04-25T09:08:29;5.85;;;3.90;;
22234;SDS011;11286;45.596;5.284;2023-04-25T09:10:55;5.50;;;3.53;;
22234;SDS011;11286;45.596;5.284;2023-04-25T09:13:24;6.88;;;3.67;;
22234;SDS011;11286;45.596;5.284;2023-04-25T09:15:56;4.47;;;3.10;;
22234;SDS011;11286;45.596;5.284;2023-04-25T09:18:23;3.83;;;2.90;;
22234;SDS011;11286;45.596;5.284;2023-04-25T09:20:51;4.57;;;2.70;;
22234;SDS011;11286;45.596;5.284;2023-04-25T09:23:18;4.78;;;3.10;;
22234;SDS011;11286;45.596;5.284;2023-04-25T09:25:46;4.40;;;2.75;;
22234;SDS011;11286;45.596;5.284;2023-04-25T09:28:13;6.07;;;3.13;;
22234;SDS011;11286;45.596;5.284;2023-04-25T09:30:39;4.90;;;3.28;;
22234;SDS011;11286;45.596;5.284;2023-04-25T09:33:05;5.75;;;3.00;;
22234;SDS011;11286;45.596;5.284;2023-04-25T09:35:35;5.78;;;2.90;;
22234;SDS011;11286;45.596;5.284;2023-04-25T09:38:06;3.95;;;2.90;;
22234;SDS011;11286;45.596;5.284;2023-04-25T09:40:39;5.53;;;2.88;;
22234;SDS011;11286;45.596;5.284;2023-04-25T09:43:30;4.32;;;2.40;;
22234;SDS011;11286;45.596;5.284;2023-04-25T09:45:55;4.15;;;2.63;;
22234;SDS011;11286;45.596;5.284;2023-04-25T09:48:25;4.43;;;2.50;;
22234;SDS011;11286;45.596;5.284;2023-04-25T09:51:13;5.57;;;2.60;;
22234;SDS011;11286;45.596;5.284;2023-04-25T09:53:40;4.53;;;2.25;;
22234;SDS011;11286;45.596;5.284;2023-04-25T09:56:10;5.25;;;2.40;;
22234;SDS011;11286;45.596;5.284;2023-04-25T09:58:38;3.85;;;2.38;;
22234;SDS011;11286;45.596;5.284;2023-04-25T10:01:05;3.30;;;2.10;;
22234;SDS011;11286;45.596;5.284;2023-04-25T10:03:33;4.57;;;2.55;;
22234;SDS011;11286;45.596;5.284;2023-04-25T10:06:01;5.40;;;2.58;;
22234;SDS011;11286;45.596;5.284;2023-04-25T10:08:31;4.13;;;2.83;;
22234;SDS011;11286;45.596;5.284;2023-04-25T10:10:59;4.15;;;2.60;;
22234;SDS011;11286;45.596;5.284;2023-04-25T10:13:27;3.70;;;2.88;;
22234;SDS011;11286;45.596;5.284;2023-04-25T10:15:57;5.53;;;3.28;;
22234;SDS011;11286;45.596;5.284;2023-04-25T10:18:28;6.57;;;3.35;;
22234;SDS011;11286;45.596;5.284;2023-04-25T10:20:54;4.38;;;2.90;;
22234;SDS011;11286;45.596;5.284;2023-04-25T10:23:25;5.75;;;3.05;;
22234;SDS011;11286;45.596;5.284;2023-04-25T10:25:51;4.13;;;2.58;;
22234;SDS011;11286;45.596;5.284;2023-04-25T10:28:17;5.68;;;2.50;;
22234;SDS011;11286;45.596;5.284;2023-04-25T10:31:07;4.70;;;2.20;;
22234;SDS011;11286;45.596;5.284;2023-04-25T10:33:37;4.15;;;2.72;;
22234;SDS011;11286;45.596;5.284;2023-04-25T10:36:11;5.07;;;2.50;;
22234;SDS011;11286;45.596;5.284;2023-04-25T10:38:42;5.95;;;2.13;;
22234;SDS011;11286;45.596;5.284;2023-04-25T10:41:08;6.43;;;2.50;;
22234;SDS011;11286;45.596;5.284;2023-04-25T10:43:42;3.47;;;2.30;;
22234;SDS011;11286;45.596;5.284;2023-04-25T10:48:55;4.80;;;2.28;;
22234;SDS011;11286;45.596;5.284;2023-04-25T10:51:23;4.63;;;2.03;;
22234;SDS011;11286;45.596;5.284;2023-04-25T10:56:25;4.97;;;2.55;;
22234;SDS011;11286;45.596;5.284;2023-04-25T10:58:50;3.78;;;2.00;;
22234;SDS011;11286;45.596;5.284;2023-04-25T11:01:20;4.50;;;2.28;;
22234;SDS011;11286;45.596;5.284;2023-04-25T11:03:49;3.85;;;2.10;;
22234;SDS011;11286;45.596;5.284;2023-04-25T11:06:26;5.00;;;1.98;;
22234;SDS011;11286;45.596;5.284;2023-04-25T11:09:02;2.97;;;2.22;;
22234;SDS011;11286;45.596;5.284;2023-04-25T11:11:36;3.65;;;2.05;;
22234;SDS011;11286;45.596;5.284;2023-04-25T11:14:03;2.83;;;2.15;;
22234;SDS011;11286;45.596;5.284;2023-04-25T11:16:29;7.05;;;2.30;;
22234;SDS011;11286;45.596;5.284;2023-04-25T11:18:57;4.20;;;2.17;;
22234;SDS011;11286;45.596;5.284;2023-04-25T11:21:23;3.67;;;2.00;;
22234;SDS011;11286;45.596;5.284;2023-04-25T11:23:51;3.33;;;2.03;;
22234;SDS011;11286;45.596;5.284;2023-04-25T11:26:18;2.80;;;1.85;;
22234;SDS011;11286;45.596;5.284;2023-04-25T11:28:45;4.40;;;2.05;;
22234;SDS011;11286;45.596;5.284;2023-04-25T11:31:11;3.88;;;1.92;;
22234;SDS011;11286;45.596;5.284;2023-04-25T11:33:37;3.08;;;1.70;;
22234;SDS011;11286;45.596;5.284;2023-04-25T11:36:03;5.53;;;1.80;;
22234;SDS011;11286;45.596;5.284;2023-04-25T11:38:30;5.45;;;1.95;;
22234;SDS011;11286;45.596;5.284;2023-04-25T11:40:56;3.95;;;1.70;;
22234;SDS011;11286;45.596;5.284;2023-04-25T11:43:22;4.00;;;2.00;;
22234;SDS011;11286;45.596;5.284;2023-04-25T11:45:48;4.25;;;1.80;;
22234;SDS011;11286;45.596;5.284;2023-04-25T11:48:15;4.57;;;2.08;;
22234;SDS011;11286;45.596;5.284;2023-04-25T11:50:41;3.83;;;2.00;;
22234;SDS011;11286;45.596;5.284;2023-04-25T11:53:07;3.08;;;1.75;;
22234;SDS011;11286;45.596;5.284;2023-04-25T11:55:33;3.28;;;2.00;;
22234;SDS011;11286;45.596;5.284;2023-04-25T11:58:00;3.33;;;1.90;;
22234;SDS011;11286;45.596;5.284;2023-04-25T12:00:25;3.63;;;1.90;;
22234;SDS011;11286;45.596;5.284;2023-04-25T12:02:53;4.35;;;2.00;;
22234;SDS011;11286;45.596;5.284;2023-04-25T12:05:19;3.40;;;1.90;;
22234;SDS011;11286;45.596;5.284;2023-04-25T12:07:48;4.50;;;1.88;;
22234;SDS011;11286;45.596;5.284;2023-04-25T12:10:14;4.47;;;2.28;;
22234;SDS011;11286;45.596;5.284;2023-04-25T12:12:42;3.70;;;1.70;;
22234;SDS011;11286;45.596;5.284;2023-04-25T12:15:09;2.88;;;1.95;;
22234;SDS011;11286;45.596;5.284;2023-04-25T12:17:40;3.70;;;1.80;;
22234;SDS011;11286;45.596;5.284;2023-04-25T12:20:08;2.63;;;2.00;;
22234;SDS011;11286;45.596;5.284;2023-04-25T12:22:35;3.80;;;2.20;;
22234;SDS011;11286;45.596;5.284;2023-04-25T12:25:01;3.22;;;2.05;;
22234;SDS011;11286;45.596;5.284;2023-04-25T12:27:30;3.67;;;2.08;;
22234;SDS011;11286;45.596;5.284;2023-04-25T12:29:56;2.55;;;2.13;;
22234;SDS011;11286;45.596;5.284;2023-04-25T12:32:22;3.17;;;2.13;;
22234;SDS011;11286;45.596;5.284;2023-04-25T12:34:48;3.67;;;1.95;;
22234;SDS011;11286;45.596;5.284;2023-04-25T12:37:14;3.63;;;2.20;;
22234;SDS011;11286;45.596;5.284;2023-04-25T12:39:40;4.28;;;1.90;;
22234;SDS011;11286;45.596;5.284;2023-04-25T12:42:06;3.83;;;1.85;;
22234;SDS011;11286;45.596;5.284;2023-04-25T12:44:33;5.03;;;2.25;;
22234;SDS011;11286;45.596;5.284;2023-04-25T12:46:59;12.27;;;2.75;;
22234;SDS011;11286;45.596;5.284;2023-04-25T12:49:24;5.25;;;2.15;;
22234;SDS011;11286;45.596;5.284;2023-04-25T12:51:50;5.43;;;2.20;;
22234;SDS011;11286;45.596;5.284;2023-04-25T12:54:16;4.80;;;2.17;;
22234;SDS011;11286;45.596;5.284;2023-04-25T12:56:42;3.08;;;1.60;;
22234;SDS011;11286;45.596;5.284;2023-04-25T12:59:08;4.38;;;1.92;;
22234;SDS011;11286;45.596;5.284;2023-04-25T13:01:34;3.85;;;1.92;;
22234;SDS011;11286;45.596;5.284;2023-04-25T13:04:00;3.70;;;2.00;;
22234;SDS011;11286;45.596;5.284;2023-04-25T13:06:25;2.35;;;1.52;;
22234;SDS011;11286;45.596;5.284;2023-04-25T13:08:52;3.35;;;1.90;;
22234;SDS011;11286;45.596;5.284;2023-04-25T13:11:17;2.38;;;1.70;;
22234;SDS011;11286;45.596;5.284;2023-04-25T13:13:43;2.40;;;1.70;;
22234;SDS011;11286;45.596;5.284;2023-04-25T13:16:09;3.05;;;2.13;;
22234;SDS011;11286;45.596;5.284;2023-04-25T13:18:36;2.53;;;1.60;;
22234;SDS011;11286;45.596;5.284;2023-04-25T13:21:02;4.13;;;2.08;;
22234;SDS011;11286;45.596;5.284;2023-04-25T13:23:28;5.15;;;2.25;;
22234;SDS011;11286;45.596;5.284;2023-04-25T13:25:55;3.30;;;2.10;;
22234;SDS011;11286;45.596;5.284;2023-04-25T13:28:22;3.47;;;2.08;;
22234;SDS011;11286;45.596;5.284;2023-04-25T13:30:51;3.55;;;1.90;;
22234;SDS011;11286;45.596;5.284;2023-04-25T13:33:17;3.28;;;2.00;;
22234;SDS011;11286;45.596;5.284;2023-04-25T13:35:43;3.28;;;2.00;;
22234;SDS011;11286;45.596;5.284;2023-04-25T13:38:12;3.75;;;1.95;;
22234;SDS011;11286;45.596;5.284;2023-04-25T13:40:38;3.42;;;1.90;;
22234;SDS011;11286;45.596;5.284;2023-04-25T13:43:04;2.63;;;1.88;;
22234;SDS011;11286;45.596;5.284;2023-04-25T13:45:31;3.22;;;2.05;;
22234;SDS011;11286;45.596;5.284;2023-04-25T13:47:57;3.80;;;2.00;;
22234;SDS011;11286;45.596;5.284;2023-04-25T13:50:22;4.80;;;2.00;;
22234;SDS011;11286;45.596;5.284;2023-04-25T13:52:48;10.70;;;2.83;;
22234;SDS011;11286;45.596;5.284;2023-04-25T13:55:13;3.53;;;1.95;;
22234;SDS011;11286;45.596;5.284;2023-04-25T13:57:39;3.33;;;1.88;;
22234;SDS011;11286;45.596;5.284;2023-04-25T14:00:05;3.70;;;2.08;;
22234;SDS011;11286;45.596;5.284;2023-04-25T14:02:33;2.45;;;1.90;;
22234;SDS011;11286;45.596;5.284;2023-04-25T14:05:00;4.43;;;1.92;;
22234;SDS011;11286;45.596;5.284;2023-04-25T14:07:26;4.50;;;2.25;;
22234;SDS011;11286;45.596;5.284;2023-04-25T14:09:51;2.17;;;1.70;;
22234;SDS011;11286;45.596;5.284;2023-04-25T14:12:17;2.47;;;2.10;;
22234;SDS011;11286;45.596;5.284;2023-04-25T14:14:43;2.58;;;1.88;;
22234;SDS011;11286;45.596;5.284;2023-04-25T14:17:08;2.63;;;1.73;;
22234;SDS011;11286;45.596;5.284;2023-04-25T14:19:34;2.97;;;1.60;;
22234;SDS011;11286;45.596;5.284;2023-04-25T14:21:59;2.58;;;1.90;;
22234;SDS011;11286;45.596;5.284;2023-04-25T14:24:25;2.63;;;1.85;;
22234;SDS011;11286;45.596;5.284;2023-04-25T14:26:51;4.13;;;1.90;;
22234;SDS011;11286;45.596;5.284;2023-04-25T14:29:16;3.60;;;1.73;;
22234;SDS011;11286;45.596;5.284;2023-04-25T14:31:42;4.55;;;1.80;;
22234;SDS011;11286;45.596;5.284;2023-04-25T14:34:08;2.65;;;1.70;;
22234;SDS011;11286;45.596;5.284;2023-04-25T14:36:34;3.25;;;1.63;;
22234;SDS011;11286;45.596;5.284;2023-04-25T14:39:00;2.67;;;1.60;;
22234;SDS011;11286;45.596;5.284;2023-04-25T14:41:27;4.50;;;1.90;;
22234;SDS011;11286;45.596;5.284;2023-04-25T14:43:53;3.28;;;1.90;;
22234;SDS011;11286;45.596;5.284;2023-04-25T14:46:19;3.90;;;1.65;;